sensor_id;sensor_type;location;lat;lon;timestamp;P1;durP1;ratioP1;P2;durP2;ratioP2
69998;SDS011;57339;52.156;5.372;2024-02-14T00:01:31;13.00;;;6.57;;
69998;SDS011;57339;52.156;5.372;2024-02-14T00:04:03;14.07;;;7.53;;
69998;SDS011;57339;52.156;5.372;2024-02-14T00:06:47;14.77;;;6.97;;
69998;SDS011;57339;52.156;5.372;2024-02-14T00:47:02;17.33;;;9.45;;
69998;SDS011;57339;52.156;5.372;2024-02-14T00:49:40;15.87;;;8.33;;
69998;SDS011;57339;52.156;5.372;2024-02-14T00:52:08;16.58;;;7.43;;
69998;SDS011;57339;52.156;5.372;2024-02-14T00:54:35;19.33;;;10.82;;
69998;SDS011;57339;52.156;5.372;2024-02-14T00:57:03;18.20;;;10.25;;
69998;SDS011;57339;52.156;5.372;2024-02-14T00:59:34;19.70;;;11.43;;
69998;SDS011;57339;52.156;5.372;2024-02-14T01:02:02;20.80;;;10.73;;
69998;SDS011;57339;52.156;5.372;2024-02-14T01:04:31;20.52;;;12.05;;
69998;SDS011;57339;52.156;5.372;2024-02-14T01:07:03;20.25;;;10.75;;
69998;SDS011;57339;52.156;5.372;2024-02-14T01:09:32;19.83;;;9.52;;
69998;SDS011;57339;52.156;5.372;2024-02-14T01:12:01;16.52;;;7.40;;
69998;SDS011;57339;52.156;5.372;2024-02-14T01:14:30;23.90;;;12.73;;
69998;SDS011;57339;52.156;5.372;2024-02-14T01:17:10;20.77;;;11.38;;
69998;SDS011;57339;52.156;5.372;2024-02-14T01:19:41;18.20;;;10.45;;
69998;SDS011;57339;52.156;5.372;2024-02-14T01:22:18;19.45;;;10.85;;
69998;SDS011;57339;52.156;5.372;2024-02-14T01:25:00;23.73;;;13.80;;
69998;SDS011;57339;52.156;5.372;2024-02-14T01:27:32;21.93;;;11.57;;
69998;SDS011;57339;52.156;5.372;2024-02-14T01:29:59;22.60;;;12.55;;
69998;SDS011;57339;52.156;5.372;2024-02-14T01:32:32;23.40;;;13.95;;
69998;SDS011;57339;52.156;5.372;2024-02-14T01:35:05;25.13;;;13.27;;
69998;SDS011;57339;52.156;5.372;2024-02-14T01:37:35;26.88;;;14.77;;
69998;SDS011;57339;52.156;5.372;2024-02-14T01:40:08;25.20;;;13.50;;
69998;SDS011;57339;52.156;5.372;2024-02-14T01:42:52;22.52;;;11.88;;
69998;SDS011;57339;52.156;5.372;2024-02-14T01:45:20;24.75;;;13.70;;
69998;SDS011;57339;52.156;5.372;2024-02-14T01:47:49;23.40;;;11.57;;
69998;SDS011;57339;52.156;5.372;2024-02-14T01:50:22;24.83;;;13.23;;
69998;SDS011;57339;52.156;5.372;2024-02-14T01:52:50;18.10;;;9.60;;
69998;SDS011;57339;52.156;5.372;2024-02-14T01:55:17;23.88;;;12.90;;
69998;SDS011;57339;52.156;5.372;2024-02-14T01:57:45;27.35;;;14.48;;
69998;SDS011;57339;52.156;5.372;2024-02-14T02:00:12;19.30;;;10.18;;
69998;SDS011;57339;52.156;5.372;2024-02-14T02:02:42;27.27;;;10.45;;
69998;SDS011;57339;52.156;5.372;2024-02-14T02:05:10;25.23;;;14.03;;
69998;SDS011;57339;52.156;5.372;2024-02-14T02:07:37;21.70;;;12.02;;
69998;SDS011;57339;52.156;5.372;2024-02-14T02:10:05;17.98;;;9.27;;
69998;SDS011;57339;52.156;5.372;2024-02-14T02:12:33;20.05;;;9.98;;
69998;SDS011;57339;52.156;5.372;2024-02-14T02:15:03;23.63;;;12.70;;
69998;SDS011;57339;52.156;5.372;2024-02-14T02:17:35;19.57;;;9.53;;
69998;SDS011;57339;52.156;5.372;2024-02-14T02:20:05;23.60;;;13.32;;
69998;SDS011;57339;52.156;5.372;2024-02-14T02:22:33;24.58;;;13.75;;
69998;SDS011;57339;52.156;5.372;2024-02-14T02:25:02;21.20;;;11.30;;
69998;SDS011;57339;52.156;5.372;2024-02-14T02:27:30;27.33;;;13.55;;
69998;SDS011;57339;52.156;5.372;2024-02-14T02:30:06;21.53;;;11.13;;
69998;SDS011;57339;52.156;5.372;2024-02-14T02:32:34;21.23;;;11.10;;
69998;SDS011;57339;52.156;5.372;2024-02-14T02:35:04;18.52;;;10.02;;
69998;SDS011;57339;52.156;5.372;2024-02-14T02:37:36;17.75;;;9.30;;
69998;SDS011;57339;52.156;5.372;2024-02-14T02:40:03;20.17;;;9.75;;
69998;SDS011;57339;52.156;5.372;2024-02-14T02:42:31;24.57;;;12.87;;
69998;SDS011;57339;52.156;5.372;2024-02-14T02:45:01;21.48;;;11.20;;
69998;SDS011;57339;52.156;5.372;2024-02-14T02:47:29;22.50;;;12.65;;
69998;SDS011;57339;52.156;5.372;2024-02-14T02:50:00;15.65;;;8.70;;
69998;SDS011;57339;52.156;5.372;2024-02-14T02:52:27;21.20;;;11.70;;
69998;SDS011;57339;52.156;5.372;2024-02-14T02:54:54;18.10;;;9.40;;
69998;SDS011;57339;52.156;5.372;2024-02-14T02:57:21;21.55;;;10.98;;
69998;SDS011;57339;52.156;5.372;2024-02-14T02:59:49;19.65;;;10.60;;
69998;SDS011;57339;52.156;5.372;2024-02-14T03:02:16;22.42;;;12.63;;
69998;SDS011;57339;52.156;5.372;2024-02-14T03:04:43;20.02;;;11.10;;
69998;SDS011;57339;52.156;5.372;2024-02-14T03:07:19;14.93;;;7.93;;
69998;SDS011;57339;52.156;5.372;2024-02-14T03:09:46;23.58;;;11.73;;
69998;SDS011;57339;52.156;5.372;2024-02-14T03:12:13;18.60;;;9.20;;
69998;SDS011;57339;52.156;5.372;2024-02-14T03:14:41;14.68;;;8.05;;
69998;SDS011;57339;52.156;5.372;2024-02-14T03:17:08;17.17;;;8.70;;
69998;SDS011;57339;52.156;5.372;2024-02-14T03:19:35;24.17;;;12.10;;
69998;SDS011;57339;52.156;5.372;2024-02-14T03:22:05;19.33;;;10.40;;
69998;SDS011;57339;52.156;5.372;2024-02-14T03:24:34;20.42;;;11.18;;
69998;SDS011;57339;52.156;5.372;2024-02-14T03:27:03;19.35;;;9.35;;
69998;SDS011;57339;52.156;5.372;2024-02-14T03:29:30;19.67;;;9.80;;
69998;SDS011;57339;52.156;5.372;2024-02-14T03:31:58;22.73;;;10.93;;
69998;SDS011;57339;52.156;5.372;2024-02-14T03:34:26;20.92;;;10.98;;
69998;SDS011;57339;52.156;5.372;2024-02-14T03:36:53;20.05;;;9.02;;
69998;SDS011;57339;52.156;5.372;2024-02-14T03:39:20;16.90;;;8.27;;
69998;SDS011;57339;52.156;5.372;2024-02-14T03:41:47;23.85;;;10.55;;
69998;SDS011;57339;52.156;5.372;2024-02-14T03:44:15;22.10;;;10.17;;
69998;SDS011;57339;52.156;5.372;2024-02-14T03:46:42;29.55;;;15.10;;
69998;SDS011;57339;52.156;5.372;2024-02-14T03:49:09;29.65;;;13.82;;
69998;SDS011;57339;52.156;5.372;2024-02-14T03:51:37;26.02;;;13.38;;
69998;SDS011;57339;52.156;5.372;2024-02-14T03:54:04;23.27;;;11.23;;
69998;SDS011;57339;52.156;5.372;2024-02-14T03:56:31;26.00;;;11.93;;
69998;SDS011;57339;52.156;5.372;2024-02-14T03:58:59;29.20;;;12.07;;
69998;SDS011;57339;52.156;5.372;2024-02-14T04:01:26;28.83;;;14.02;;
69998;SDS011;57339;52.156;5.372;2024-02-14T04:03:53;27.20;;;13.90;;
69998;SDS011;57339;52.156;5.372;2024-02-14T04:06:20;22.92;;;10.70;;
69998;SDS011;57339;52.156;5.372;2024-02-14T04:08:48;28.63;;;12.50;;
69998;SDS011;57339;52.156;5.372;2024-02-14T04:11:15;26.60;;;10.63;;
69998;SDS011;57339;52.156;5.372;2024-02-14T04:13:42;26.35;;;11.98;;
69998;SDS011;57339;52.156;5.372;2024-02-14T04:16:09;29.23;;;11.18;;
69998;SDS011;57339;52.156;5.372;2024-02-14T04:18:36;23.52;;;9.38;;
69998;SDS011;57339;52.156;5.372;2024-02-14T04:21:03;30.97;;;13.30;;
69998;SDS011;57339;52.156;5.372;2024-02-14T04:23:33;25.90;;;12.23;;
69998;SDS011;57339;52.156;5.372;2024-02-14T04:26:01;26.33;;;12.98;;
69998;SDS011;57339;52.156;5.372;2024-02-14T04:28:29;27.85;;;12.10;;
69998;SDS011;57339;52.156;5.372;2024-02-14T04:30:56;24.77;;;11.05;;
69998;SDS011;57339;52.156;5.372;2024-02-14T04:33:23;26.10;;;11.93;;
69998;SDS011;57339;52.156;5.372;2024-02-14T04:35:50;31.25;;;13.68;;
69998;SDS011;57339;52.156;5.372;2024-02-14T04:38:18;28.52;;;13.02;;
69998;SDS011;57339;52.156;5.372;2024-02-14T04:40:45;33.30;;;13.77;;
69998;SDS011;57339;52.156;5.372;2024-02-14T04:43:12;33.67;;;14.30;;
69998;SDS011;57339;52.156;5.372;2024-02-14T04:45:40;29.00;;;14.43;;
69998;SDS011;57339;52.156;5.372;2024-02-14T04:48:08;31.30;;;13.43;;
69998;SDS011;57339;52.156;5.372;2024-02-14T04:50:36;32.90;;;12.48;;
69998;SDS011;57339;52.156;5.372;2024-02-14T04:53:04;27.55;;;11.57;;
69998;SDS011;57339;52.156;5.372;2024-02-14T04:55:31;22.80;;;10.07;;
69998;SDS011;57339;52.156;5.372;2024-02-14T04:58:01;37.77;;;15.33;;
69998;SDS011;57339;52.156;5.372;2024-02-14T05:00:28;32.60;;;13.38;;
69998;SDS011;57339;52.156;5.372;2024-02-14T05:02:55;22.67;;;10.43;;
69998;SDS011;57339;52.156;5.372;2024-02-14T05:05:23;30.95;;;14.52;;
69998;SDS011;57339;52.156;5.372;2024-02-14T05:07:50;20.55;;;8.95;;
69998;SDS011;57339;52.156;5.372;2024-02-14T05:10:17;29.30;;;13.43;;
69998;SDS011;57339;52.156;5.372;2024-02-14T05:12:45;35.25;;;14.70;;
69998;SDS011;57339;52.156;5.372;2024-02-14T05:15:12;29.73;;;13.27;;
69998;SDS011;57339;52.156;5.372;2024-02-14T05:17:41;29.63;;;13.23;;
69998;SDS011;57339;52.156;5.372;2024-02-14T05:20:09;26.60;;;10.00;;
69998;SDS011;57339;52.156;5.372;2024-02-14T05:22:37;24.93;;;9.93;;
69998;SDS011;57339;52.156;5.372;2024-02-14T05:25:04;33.10;;;13.77;;
69998;SDS011;57339;52.156;5.372;2024-02-14T05:27:32;29.98;;;12.98;;
69998;SDS011;57339;52.156;5.372;2024-02-14T05:30:00;31.83;;;14.07;;
69998;SDS011;57339;52.156;5.372;2024-02-14T05:32:28;34.50;;;14.18;;
69998;SDS011;57339;52.156;5.372;2024-02-14T05:34:55;32.60;;;13.93;;
69998;SDS011;57339;52.156;5.372;2024-02-14T05:37:22;24.75;;;11.18;;
69998;SDS011;57339;52.156;5.372;2024-02-14T05:39:50;27.13;;;13.55;;
69998;SDS011;57339;52.156;5.372;2024-02-14T05:42:17;27.50;;;13.13;;
69998;SDS011;57339;52.156;5.372;2024-02-14T05:44:44;31.00;;;14.02;;
69998;SDS011;57339;52.156;5.372;2024-02-14T05:47:11;27.13;;;12.13;;
69998;SDS011;57339;52.156;5.372;2024-02-14T05:49:39;30.23;;;12.43;;
69998;SDS011;57339;52.156;5.372;2024-02-14T05:52:07;30.52;;;13.50;;
69998;SDS011;57339;52.156;5.372;2024-02-14T05:54:34;32.20;;;14.32;;
69998;SDS011;57339;52.156;5.372;2024-02-14T05:57:02;25.75;;;10.52;;
69998;SDS011;57339;52.156;5.372;2024-02-14T05:59:30;22.67;;;10.33;;
69998;SDS011;57339;52.156;5.372;2024-02-14T06:01:57;23.95;;;11.38;;
69998;SDS011;57339;52.156;5.372;2024-02-14T06:04:24;21.40;;;9.75;;
69998;SDS011;57339;52.156;5.372;2024-02-14T06:06:51;22.50;;;10.88;;
69998;SDS011;57339;52.156;5.372;2024-02-14T06:09:18;24.58;;;11.32;;
69998;SDS011;57339;52.156;5.372;2024-02-14T06:11:45;23.63;;;11.03;;
69998;SDS011;57339;52.156;5.372;2024-02-14T06:14:12;22.92;;;10.60;;
69998;SDS011;57339;52.156;5.372;2024-02-14T06:16:39;22.88;;;10.65;;
69998;SDS011;57339;52.156;5.372;2024-02-14T06:19:06;20.38;;;8.82;;
69998;SDS011;57339;52.156;5.372;2024-02-14T06:21:33;23.70;;;11.07;;
69998;SDS011;57339;52.156;5.372;2024-02-14T06:24:01;24.23;;;11.03;;
69998;SDS011;57339;52.156;5.372;2024-02-14T06:26:28;23.83;;;9.90;;
69998;SDS011;57339;52.156;5.372;2024-02-14T06:28:55;21.55;;;9.80;;
69998;SDS011;57339;52.156;5.372;2024-02-14T06:31:22;23.15;;;10.18;;
69998;SDS011;57339;52.156;5.372;2024-02-14T06:33:49;24.58;;;11.32;;
69998;SDS011;57339;52.156;5.372;2024-02-14T06:36:17;19.77;;;9.30;;
69998;SDS011;57339;52.156;5.372;2024-02-14T06:38:44;23.63;;;10.88;;
69998;SDS011;57339;52.156;5.372;2024-02-14T06:41:12;15.57;;;7.10;;
69998;SDS011;57339;52.156;5.372;2024-02-14T06:43:39;20.40;;;8.80;;
69998;SDS011;57339;52.156;5.372;2024-02-14T06:46:06;18.52;;;8.73;;
69998;SDS011;57339;52.156;5.372;2024-02-14T06:48:34;22.10;;;10.07;;
69998;SDS011;57339;52.156;5.372;2024-02-14T06:51:01;23.90;;;11.43;;
69998;SDS011;57339;52.156;5.372;2024-02-14T06:53:28;24.45;;;11.25;;
69998;SDS011;57339;52.156;5.372;2024-02-14T06:55:55;28.23;;;14.00;;
69998;SDS011;57339;52.156;5.372;2024-02-14T06:58:22;25.80;;;11.73;;
69998;SDS011;57339;52.156;5.372;2024-02-14T07:00:49;25.93;;;11.67;;
69998;SDS011;57339;52.156;5.372;2024-02-14T07:03:16;31.05;;;14.52;;
69998;SDS011;57339;52.156;5.372;2024-02-14T07:05:43;31.30;;;13.95;;
69998;SDS011;57339;52.156;5.372;2024-02-14T07:08:10;32.63;;;14.30;;
69998;SDS011;57339;52.156;5.372;2024-02-14T07:10:37;35.30;;;15.77;;
69998;SDS011;57339;52.156;5.372;2024-02-14T07:13:04;36.50;;;15.93;;
69998;SDS011;57339;52.156;5.372;2024-02-14T07:15:31;38.28;;;17.27;;
69998;SDS011;57339;52.156;5.372;2024-02-14T07:17:59;34.60;;;15.57;;
69998;SDS011;57339;52.156;5.372;2024-02-14T07:20:26;34.38;;;16.10;;
69998;SDS011;57339;52.156;5.372;2024-02-14T07:22:53;35.55;;;15.52;;
69998;SDS011;57339;52.156;5.372;2024-02-14T07:25:20;43.00;;;17.53;;
69998;SDS011;57339;52.156;5.372;2024-02-14T07:27:48;28.42;;;13.45;;
69998;SDS011;57339;52.156;5.372;2024-02-14T07:30:16;36.42;;;16.23;;
69998;SDS011;57339;52.156;5.372;2024-02-14T07:32:43;38.83;;;18.20;;
69998;SDS011;57339;52.156;5.372;2024-02-14T07:35:11;44.25;;;18.92;;
69998;SDS011;57339;52.156;5.372;2024-02-14T07:37:39;33.17;;;14.63;;
69998;SDS011;57339;52.156;5.372;2024-02-14T07:40:06;39.03;;;17.55;;
69998;SDS011;57339;52.156;5.372;2024-02-14T07:42:33;39.42;;;16.20;;
69998;SDS011;57339;52.156;5.372;2024-02-14T07:45:02;33.10;;;14.38;;
69998;SDS011;57339;52.156;5.372;2024-02-14T07:47:32;33.53;;;15.30;;
69998;SDS011;57339;52.156;5.372;2024-02-14T07:50:00;36.63;;;17.37;;
69998;SDS011;57339;52.156;5.372;2024-02-14T07:52:26;37.38;;;16.50;;
69998;SDS011;57339;52.156;5.372;2024-02-14T07:54:54;38.55;;;17.02;;
69998;SDS011;57339;52.156;5.372;2024-02-14T07:57:22;41.13;;;16.65;;
69998;SDS011;57339;52.156;5.372;2024-02-14T07:59:50;37.83;;;17.90;;
69998;SDS011;57339;52.156;5.372;2024-02-14T08:02:18;40.20;;;18.73;;
69998;SDS011;57339;52.156;5.372;2024-02-14T08:04:46;33.88;;;15.48;;
69998;SDS011;57339;52.156;5.372;2024-02-14T08:07:15;39.60;;;18.02;;
69998;SDS011;57339;52.156;5.372;2024-02-14T08:09:43;36.28;;;15.00;;
69998;SDS011;57339;52.156;5.372;2024-02-14T08:12:10;41.05;;;17.67;;
69998;SDS011;57339;52.156;5.372;2024-02-14T08:14:37;36.83;;;16.67;;
69998;SDS011;57339;52.156;5.372;2024-02-14T08:17:05;32.83;;;15.98;;
69998;SDS011;57339;52.156;5.372;2024-02-14T08:19:32;29.05;;;12.38;;
69998;SDS011;57339;52.156;5.372;2024-02-14T08:21:59;34.05;;;17.23;;
69998;SDS011;57339;52.156;5.372;2024-02-14T08:24:27;35.13;;;16.13;;
69998;SDS011;57339;52.156;5.372;2024-02-14T08:26:54;36.73;;;16.20;;
69998;SDS011;57339;52.156;5.372;2024-02-14T08:29:21;35.47;;;16.40;;
69998;SDS011;57339;52.156;5.372;2024-02-14T08:31:49;30.60;;;15.35;;
69998;SDS011;57339;52.156;5.372;2024-02-14T08:34:16;32.40;;;16.33;;
69998;SDS011;57339;52.156;5.372;2024-02-14T08:36:43;36.85;;;17.10;;
69998;SDS011;57339;52.156;5.372;2024-02-14T08:39:10;32.00;;;16.60;;
69998;SDS011;57339;52.156;5.372;2024-02-14T08:41:38;24.20;;;11.20;;
69998;SDS011;57339;52.156;5.372;2024-02-14T08:44:10;30.90;;;14.90;;
69998;SDS011;57339;52.156;5.372;2024-02-14T08:46:37;36.50;;;16.80;;
69998;SDS011;57339;52.156;5.372;2024-02-14T08:49:04;30.73;;;13.88;;
69998;SDS011;57339;52.156;5.372;2024-02-14T08:51:37;30.13;;;12.73;;
69998;SDS011;57339;52.156;5.372;2024-02-14T08:54:04;31.65;;;15.82;;
69998;SDS011;57339;52.156;5.372;2024-02-14T08:56:32;30.55;;;15.27;;
69998;SDS011;57339;52.156;5.372;2024-02-14T08:59:01;35.97;;;16.45;;
69998;SDS011;57339;52.156;5.372;2024-02-14T09:01:29;26.05;;;12.50;;
69998;SDS011;57339;52.156;5.372;2024-02-14T09:03:57;25.97;;;13.57;;
69998;SDS011;57339;52.156;5.372;2024-02-14T09:06:24;29.33;;;15.55;;
69998;SDS011;57339;52.156;5.372;2024-02-14T09:08:51;21.45;;;10.35;;
69998;SDS011;57339;52.156;5.372;2024-02-14T09:11:19;29.02;;;14.15;;
69998;SDS011;57339;52.156;5.372;2024-02-14T09:13:46;28.48;;;14.45;;
69998;SDS011;57339;52.156;5.372;2024-02-14T09:16:13;28.30;;;14.30;;
69998;SDS011;57339;52.156;5.372;2024-02-14T09:18:40;22.83;;;11.02;;
69998;SDS011;57339;52.156;5.372;2024-02-14T09:21:08;27.45;;;13.38;;
69998;SDS011;57339;52.156;5.372;2024-02-14T09:23:35;23.52;;;11.15;;
69998;SDS011;57339;52.156;5.372;2024-02-14T09:26:03;22.55;;;11.20;;
69998;SDS011;57339;52.156;5.372;2024-02-14T09:28:32;23.70;;;12.10;;
69998;SDS011;57339;52.156;5.372;2024-02-14T09:31:03;15.55;;;7.40;;
69998;SDS011;57339;52.156;5.372;2024-02-14T09:33:31;25.38;;;12.52;;
69998;SDS011;57339;52.156;5.372;2024-02-14T09:35:59;28.98;;;13.18;;
69998;SDS011;57339;52.156;5.372;2024-02-14T09:38:26;23.90;;;12.43;;
69998;SDS011;57339;52.156;5.372;2024-02-14T09:40:56;25.97;;;11.87;;
69998;SDS011;57339;52.156;5.372;2024-02-14T09:43:36;22.83;;;10.57;;
69998;SDS011;57339;52.156;5.372;2024-02-14T09:46:12;21.33;;;10.68;;
69998;SDS011;57339;52.156;5.372;2024-02-14T09:48:41;24.35;;;12.00;;
69998;SDS011;57339;52.156;5.372;2024-02-14T09:51:12;23.08;;;12.55;;
69998;SDS011;57339;52.156;5.372;2024-02-14T09:53:40;21.80;;;10.77;;
69998;SDS011;57339;52.156;5.372;2024-02-14T09:56:10;29.95;;;15.23;;
69998;SDS011;57339;52.156;5.372;2024-02-14T09:58:39;32.78;;;15.27;;
69998;SDS011;57339;52.156;5.372;2024-02-14T10:01:07;25.27;;;11.88;;
69998;SDS011;57339;52.156;5.372;2024-02-14T10:03:34;33.13;;;15.63;;
69998;SDS011;57339;52.156;5.372;2024-02-14T10:06:02;36.47;;;17.60;;
69998;SDS011;57339;52.156;5.372;2024-02-14T10:08:30;34.70;;;17.92;;
69998;SDS011;57339;52.156;5.372;2024-02-14T10:10:57;37.17;;;18.55;;
69998;SDS011;57339;52.156;5.372;2024-02-14T10:13:27;40.50;;;19.15;;
69998;SDS011;57339;52.156;5.372;2024-02-14T10:15:55;35.83;;;15.98;;
69998;SDS011;57339;52.156;5.372;2024-02-14T10:18:22;32.70;;;16.23;;
69998;SDS011;57339;52.156;5.372;2024-02-14T10:20:59;32.58;;;16.30;;
69998;SDS011;57339;52.156;5.372;2024-02-14T10:23:27;31.70;;;15.90;;
69998;SDS011;57339;52.156;5.372;2024-02-14T10:25:54;32.83;;;14.25;;
69998;SDS011;57339;52.156;5.372;2024-02-14T10:28:23;19.02;;;9.98;;
69998;SDS011;57339;52.156;5.372;2024-02-14T10:31:20;28.17;;;14.47;;
69998;SDS011;57339;52.156;5.372;2024-02-14T10:33:47;29.92;;;14.88;;
69998;SDS011;57339;52.156;5.372;2024-02-14T10:36:15;26.42;;;13.07;;
69998;SDS011;57339;52.156;5.372;2024-02-14T10:38:44;27.00;;;13.23;;
69998;SDS011;57339;52.156;5.372;2024-02-14T10:41:13;26.52;;;13.52;;
69998;SDS011;57339;52.156;5.372;2024-02-14T10:43:41;28.20;;;13.07;;
69998;SDS011;57339;52.156;5.372;2024-02-14T10:46:19;26.20;;;12.82;;
69998;SDS011;57339;52.156;5.372;2024-02-14T10:48:50;27.42;;;13.63;;
69998;SDS011;57339;52.156;5.372;2024-02-14T10:51:24;22.33;;;11.48;;
69998;SDS011;57339;52.156;5.372;2024-02-14T10:53:55;25.05;;;12.88;;
69998;SDS011;57339;52.156;5.372;2024-02-14T10:56:26;26.43;;;12.70;;
69998;SDS011;57339;52.156;5.372;2024-02-14T10:58:57;25.10;;;12.27;;
69998;SDS011;57339;52.156;5.372;2024-02-14T11:01:26;23.48;;;12.18;;
69998;SDS011;57339;52.156;5.372;2024-02-14T11:03:54;22.92;;;12.90;;
69998;SDS011;57339;52.156;5.372;2024-02-14T11:06:21;27.15;;;12.35;;
69998;SDS011;57339;52.156;5.372;2024-02-14T11:08:58;23.83;;;12.33;;
69998;SDS011;57339;52.156;5.372;2024-02-14T11:11:28;23.52;;;11.98;;
69998;SDS011;57339;52.156;5.372;2024-02-14T11:13:56;22.42;;;11.15;;
69998;SDS011;57339;52.156;5.372;2024-02-14T11:16:26;23.05;;;11.93;;
69998;SDS011;57339;52.156;5.372;2024-02-14T11:21:35;23.23;;;11.40;;
69998;SDS011;57339;52.156;5.372;2024-02-14T11:24:05;21.60;;;11.55;;
69998;SDS011;57339;52.156;5.372;2024-02-14T11:26:47;22.10;;;10.82;;
69998;SDS011;57339;52.156;5.372;2024-02-14T11:29:19;23.33;;;11.00;;
69998;SDS011;57339;52.156;5.372;2024-02-14T11:31:57;22.75;;;11.20;;
69998;SDS011;57339;52.156;5.372;2024-02-14T11:34:26;20.50;;;10.20;;
69998;SDS011;57339;52.156;5.372;2024-02-14T11:36:55;22.02;;;11.35;;
69998;SDS011;57339;52.156;5.372;2024-02-14T11:39:23;22.88;;;11.70;;
69998;SDS011;57339;52.156;5.372;2024-02-14T11:41:53;23.45;;;11.30;;
69998;SDS011;57339;52.156;5.372;2024-02-14T11:44:24;22.33;;;11.75;;
69998;SDS011;57339;52.156;5.372;2024-02-14T11:46:51;25.40;;;13.27;;
69998;SDS011;57339;52.156;5.372;2024-02-14T11:49:19;25.52;;;13.00;;
69998;SDS011;57339;52.156;5.372;2024-02-14T11:51:56;23.25;;;11.57;;
69998;SDS011;57339;52.156;5.372;2024-02-14T12:04:04;25.48;;;13.82;;
69998;SDS011;57339;52.156;5.372;2024-02-14T12:06:34;24.73;;;12.90;;
69998;SDS011;57339;52.156;5.372;2024-02-14T12:09:03;29.73;;;14.77;;
69998;SDS011;57339;52.156;5.372;2024-02-14T12:11:38;27.60;;;15.38;;
69998;SDS011;57339;52.156;5.372;2024-02-14T12:14:06;29.77;;;16.50;;
69998;SDS011;57339;52.156;5.372;2024-02-14T12:16:38;31.65;;;16.45;;
69998;SDS011;57339;52.156;5.372;2024-02-14T12:19:06;32.70;;;17.33;;
69998;SDS011;57339;52.156;5.372;2024-02-14T12:21:40;31.98;;;17.33;;
69998;SDS011;57339;52.156;5.372;2024-02-14T12:24:08;31.55;;;16.48;;
69998;SDS011;57339;52.156;5.372;2024-02-14T12:26:39;30.20;;;14.70;;
69998;SDS011;57339;52.156;5.372;2024-02-14T12:29:08;29.60;;;16.67;;
69998;SDS011;57339;52.156;5.372;2024-02-14T12:31:40;30.88;;;16.73;;
69998;SDS011;57339;52.156;5.372;2024-02-14T12:34:11;26.63;;;13.85;;
69998;SDS011;57339;52.156;5.372;2024-02-14T12:36:39;25.13;;;13.40;;
69998;SDS011;57339;52.156;5.372;2024-02-14T12:39:06;24.90;;;14.13;;
69998;SDS011;57339;52.156;5.372;2024-02-14T12:41:35;24.25;;;13.05;;
69998;SDS011;57339;52.156;5.372;2024-02-14T12:44:03;17.30;;;8.65;;
69998;SDS011;57339;52.156;5.372;2024-02-14T12:46:36;19.48;;;10.77;;
69998;SDS011;57339;52.156;5.372;2024-02-14T12:49:09;19.05;;;10.65;;
69998;SDS011;57339;52.156;5.372;2024-02-14T12:51:40;19.37;;;9.60;;
69998;SDS011;57339;52.156;5.372;2024-02-14T12:54:08;19.45;;;10.43;;
69998;SDS011;57339;52.156;5.372;2024-02-14T12:56:38;17.85;;;9.32;;
69998;SDS011;57339;52.156;5.372;2024-02-14T12:59:14;14.80;;;7.07;;
69998;SDS011;57339;52.156;5.372;2024-02-14T13:01:44;17.20;;;8.80;;
69998;SDS011;57339;52.156;5.372;2024-02-14T13:04:13;16.87;;;7.40;;
69998;SDS011;57339;52.156;5.372;2024-02-14T13:07:00;16.08;;;8.10;;
69998;SDS011;57339;52.156;5.372;2024-02-14T13:09:28;15.05;;;7.20;;
69998;SDS011;57339;52.156;5.372;2024-02-14T13:12:10;15.95;;;7.63;;
69998;SDS011;57339;52.156;5.372;2024-02-14T13:14:39;15.98;;;8.10;;
69998;SDS011;57339;52.156;5.372;2024-02-14T13:17:06;16.87;;;7.97;;
69998;SDS011;57339;52.156;5.372;2024-02-14T13:19:40;16.15;;;8.38;;
69998;SDS011;57339;52.156;5.372;2024-02-14T13:22:11;19.20;;;9.05;;
69998;SDS011;57339;52.156;5.372;2024-02-14T13:24:41;18.02;;;9.13;;
69998;SDS011;57339;52.156;5.372;2024-02-14T13:27:12;19.15;;;10.00;;
69998;SDS011;57339;52.156;5.372;2024-02-14T13:29:41;18.73;;;10.30;;
69998;SDS011;57339;52.156;5.372;2024-02-14T13:32:11;17.10;;;8.23;;
69998;SDS011;57339;52.156;5.372;2024-02-14T13:34:38;16.52;;;9.15;;
69998;SDS011;57339;52.156;5.372;2024-02-14T13:47:44;16.17;;;8.07;;
69998;SDS011;57339;52.156;5.372;2024-02-14T13:50:14;15.68;;;7.68;;
69998;SDS011;57339;52.156;5.372;2024-02-14T13:52:41;14.95;;;8.07;;
69998;SDS011;57339;52.156;5.372;2024-02-14T13:55:12;14.93;;;8.00;;
69998;SDS011;57339;52.156;5.372;2024-02-14T13:57:39;14.32;;;7.20;;
69998;SDS011;57339;52.156;5.372;2024-02-14T14:00:07;16.05;;;8.20;;
69998;SDS011;57339;52.156;5.372;2024-02-14T14:02:35;13.15;;;6.63;;
69998;SDS011;57339;52.156;5.372;2024-02-14T14:05:03;13.65;;;6.78;;
69998;SDS011;57339;52.156;5.372;2024-02-14T14:07:34;14.40;;;6.90;;
69998;SDS011;57339;52.156;5.372;2024-02-14T14:10:23;16.25;;;8.55;;
69998;SDS011;57339;52.156;5.372;2024-02-14T14:13:08;16.15;;;7.43;;
69998;SDS011;57339;52.156;5.372;2024-02-14T14:15:39;15.25;;;7.60;;
69998;SDS011;57339;52.156;5.372;2024-02-14T14:18:08;12.75;;;6.20;;
69998;SDS011;57339;52.156;5.372;2024-02-14T14:20:36;16.80;;;8.33;;
69998;SDS011;57339;52.156;5.372;2024-02-14T14:23:06;16.13;;;7.97;;
69998;SDS011;57339;52.156;5.372;2024-02-14T14:25:35;17.10;;;8.38;;
69998;SDS011;57339;52.156;5.372;2024-02-14T14:28:06;15.93;;;8.25;;
69998;SDS011;57339;52.156;5.372;2024-02-14T14:30:36;16.88;;;8.70;;
69998;SDS011;57339;52.156;5.372;2024-02-14T14:33:14;11.50;;;5.77;;
69998;SDS011;57339;52.156;5.372;2024-02-14T14:35:48;15.20;;;7.65;;
69998;SDS011;57339;52.156;5.372;2024-02-14T14:38:20;17.75;;;8.57;;
69998;SDS011;57339;52.156;5.372;2024-02-14T14:40:58;15.60;;;7.22;;
69998;SDS011;57339;52.156;5.372;2024-02-14T14:43:38;16.52;;;9.13;;
69998;SDS011;57339;52.156;5.372;2024-02-14T14:46:18;15.27;;;7.63;;
69998;SDS011;57339;52.156;5.372;2024-02-14T14:48:47;15.90;;;8.52;;
69998;SDS011;57339;52.156;5.372;2024-02-14T14:51:20;16.13;;;8.05;;
69998;SDS011;57339;52.156;5.372;2024-02-14T14:53:48;15.52;;;7.85;;
69998;SDS011;57339;52.156;5.372;2024-02-14T14:56:18;13.23;;;5.93;;
69998;SDS011;57339;52.156;5.372;2024-02-14T14:58:53;13.50;;;6.70;;
69998;SDS011;57339;52.156;5.372;2024-02-14T15:01:49;14.45;;;7.25;;
69998;SDS011;57339;52.156;5.372;2024-02-14T15:04:20;11.25;;;4.97;;
69998;SDS011;57339;52.156;5.372;2024-02-14T15:06:48;13.55;;;6.88;;
69998;SDS011;57339;52.156;5.372;2024-02-14T15:09:15;14.25;;;6.93;;
69998;SDS011;57339;52.156;5.372;2024-02-14T15:12:11;11.70;;;5.27;;
69998;SDS011;57339;52.156;5.372;2024-02-14T15:14:39;14.25;;;7.03;;
69998;SDS011;57339;52.156;5.372;2024-02-14T15:17:35;10.65;;;5.00;;
69998;SDS011;57339;52.156;5.372;2024-02-14T15:20:16;14.63;;;7.40;;
69998;SDS011;57339;52.156;5.372;2024-02-14T15:22:47;13.93;;;7.25;;
69998;SDS011;57339;52.156;5.372;2024-02-14T15:25:23;13.47;;;6.87;;
69998;SDS011;57339;52.156;5.372;2024-02-14T15:28:11;12.40;;;5.43;;
69998;SDS011;57339;52.156;5.372;2024-02-14T15:30:53;15.23;;;7.13;;
69998;SDS011;57339;52.156;5.372;2024-02-14T15:33:25;14.38;;;7.13;;
69998;SDS011;57339;52.156;5.372;2024-02-14T15:35:56;12.32;;;6.28;;
69998;SDS011;57339;52.156;5.372;2024-02-14T15:38:31;13.00;;;6.23;;
69998;SDS011;57339;52.156;5.372;2024-02-14T15:40:59;13.60;;;6.72;;